Time;durP1;ratioP1;P1;durP2;ratioP2;P2;SDS_P1;SDS_P2;PMS_P1;PMS_P2;Temp;Humidity;BMP_temperature;BMP_pressure;BME280_temperature;BME280_humidity;BME280_pressure;Samples;Min_cycle;Max_cycle;Signal;HPM_P1;HPM_P2
2022/09/06 00:00:28;;;;;;;6.60;2.00;;;;;;;-142.37;100.00;59669.53;4973474;28;20034;-64
2022/09/06 00:02:54;;;;;;;3.08;1.92;;;;;;;-142.37;100.00;59669.53;4956179;28;20062;-66
2022/09/06 00:05:20;;;;;;;7.45;2.20;;;;;;;-142.37;100.00;59669.53;4973299;28;20035;-65
2022/09/06 00:07:46;;;;;;;9.70;2.15;;;;;;;-142.37;100.00;59669.53;4956042;28;20082;-64
2022/09/06 00:10:12;;;;;;;17.92;2.80;;;;;;;-142.37;100.00;59669.53;4972216;28;20035;-65
2022/09/06 00:12:38;;;;;;;4.70;2.28;;;;;;;-142.37;100.00;59669.53;4974166;28;20034;-65
2022/09/06 00:15:05;;;;;;;3.08;1.83;;;;;;;-142.37;100.00;59669.53;4977483;28;20031;-64
2022/09/06 00:17:31;;;;;;;3.75;1.67;;;;;;;-142.37;100.00;59669.53;4959853;28;20483;-64
2022/09/06 00:19:57;;;;;;;2.63;1.80;;;;;;;-142.37;100.00;59669.53;4959871;28;20034;-65
2022/09/06 00:22:23;;;;;;;6.63;1.55;;;;;;;-142.37;100.00;59669.53;4977139;28;20139;-65
2022/09/06 00:24:48;;;;;;;3.60;1.67;;;;;;;-142.37;100.00;59669.53;4976870;28;20035;-67
2022/09/06 00:27:14;;;;;;;2.35;1.63;;;;;;;-142.37;100.00;59669.53;4976752;28;20027;-64
2022/09/06 00:29:40;;;;;;;3.95;1.50;;;;;;;-142.37;100.00;59669.53;4959332;28;20518;-64
2022/09/06 00:32:05;;;;;;;3.17;1.70;;;;;;;-142.37;100.00;59669.53;4959640;28;20030;-65
2022/09/06 00:34:31;;;;;;;1.20;0.98;;;;;;;-142.37;100.00;59669.53;4976790;28;20038;-66
2022/09/06 00:36:56;;;;;;;4.55;1.20;;;;;;;-142.37;100.00;59669.53;4959587;28;20113;-67
2022/09/06 00:39:22;;;;;;;2.92;1.15;;;;;;;-142.37;100.00;59669.53;4977350;28;20808;-65
2022/09/06 00:41:48;;;;;;;1.23;1.08;;;;;;;-142.37;100.00;59669.53;4959083;28;20045;-64
2022/09/06 00:44:14;;;;;;;3.53;1.02;;;;;;;-142.37;100.00;59669.53;4976825;28;20376;-64
2022/09/06 00:46:44;;;;;;;1.92;1.02;;;;;;;-142.37;100.00;59669.53;4976463;28;20110;-65
2022/09/06 00:49:55;;;;;;;3.20;1.38;;;;;;;-142.37;100.00;59669.53;4959088;28;20117;-65
2022/09/06 00:52:23;;;;;;;1.50;1.15;;;;;;;-142.37;100.00;59669.53;4975136;28;20407;-66
2022/09/06 00:54:49;;;;;;;1.17;0.70;;;;;;;-142.37;100.00;59669.53;4976680;28;20035;-64
2022/09/06 00:57:16;;;;;;;2.22;0.90;;;;;;;-142.37;100.00;59669.53;4958953;28;20038;-64
2022/09/06 00:59:44;;;;;;;1.35;0.73;;;;;;;-142.37;100.00;59669.53;4976526;28;20109;-65
2022/09/06 01:02:10;;;;;;;1.52;0.80;;;;;;;-142.37;100.00;59669.53;4959014;28;20492;-65
2022/09/06 01:04:39;;;;;;;2.47;1.00;;;;;;;-142.37;100.00;59669.53;4976132;28;20065;-64
2022/09/06 01:07:17;;;;;;;1.50;1.02;;;;;;;-142.37;100.00;59669.53;4958874;28;20030;-65
2022/09/06 01:09:52;;;;;;;2.40;0.95;;;;;;;-142.37;100.00;59669.53;4976195;28;20162;-64
2022/09/06 01:12:38;;;;;;;2.50;0.95;;;;;;;-142.37;100.00;59669.53;4974981;28;20399;-65
2022/09/06 01:15:04;;;;;;;2.15;0.90;;;;;;;-142.37;100.00;59669.53;4958571;28;20070;-65
2022/09/06 01:17:58;;;;;;;1.33;0.82;;;;;;;-142.37;100.00;59669.53;4976226;28;20041;-65
2022/09/06 01:20:43;;;;;;;1.30;0.60;;;;;;;-142.37;100.00;59669.53;4976171;28;20396;-65
2022/09/06 01:23:27;;;;;;;3.10;1.10;;;;;;;-142.37;100.00;59669.53;4957916;28;20062;-66
2022/09/06 01:26:01;;;;;;;1.13;0.93;;;;;;;-142.37;100.00;59669.53;4974867;28;20403;-66
2022/09/06 01:28:35;;;;;;;2.00;1.00;;;;;;;-142.37;100.00;59669.53;4976325;28;20049;-65
2022/09/06 01:31:39;;;;;;;0.73;0.70;;;;;;;-142.37;100.00;59669.53;4974458;28;20499;-66
2022/09/06 01:34:04;;;;;;;3.20;0.63;;;;;;;-142.37;100.00;59669.53;4919104;29;20039;-66
2022/09/06 01:36:45;;;;;;;1.40;0.90;;;;;;;-142.37;100.00;59669.53;4967131;28;20432;-66
2022/09/06 01:39:21;;;;;;;1.67;0.63;;;;;;;-142.37;100.00;59669.53;4958017;28;20027;-65
2022/09/06 01:41:48;;;;;;;2.30;0.90;;;;;;;-142.37;100.00;59669.53;4958365;28;20077;-66
2022/09/06 01:44:13;;;;;;;0.93;0.63;;;;;;;-142.37;100.00;59669.53;4975569;28;20022;-66
2022/09/06 01:46:50;;;;;;;2.85;0.70;;;;;;;-142.37;100.00;59669.53;4958210;28;20534;-66
2022/09/06 01:49:19;;;;;;;1.35;0.63;;;;;;;-142.37;100.00;59669.53;4975303;28;20031;-64
2022/09/06 01:52:00;;;;;;;0.88;0.52;;;;;;;-142.37;100.00;59669.53;4958289;28;20030;-65
2022/09/06 01:54:53;;;;;;;4.03;0.80;;;;;;;-142.37;100.00;59669.53;4974091;28;20030;-66
2022/09/06 01:57:35;;;;;;;1.55;0.60;;;;;;;-142.37;100.00;59669.53;4957268;28;20042;-65
2022/09/06 02:00:08;;;;;;;2.63;0.60;;;;;;;-142.37;100.00;59669.53;4958051;28;20031;-66
2022/09/06 02:03:05;;;;;;;1.65;0.98;;;;;;;-142.37;100.00;59669.53;4975356;28;20030;-67
2022/09/06 02:05:49;;;;;;;2.17;0.63;;;;;;;-142.37;100.00;59669.53;4954302;28;20039;-65
2022/09/06 02:08:24;;;;;;;2.88;0.80;;;;;;;-142.37;100.00;59669.53;4957828;28;20069;-65
2022/09/06 02:11:03;;;;;;;2.42;0.88;;;;;;;-142.37;100.00;59669.53;4957789;28;20503;-64
2022/09/06 02:13:34;;;;;;;2.15;0.70;;;;;;;-142.37;100.00;59669.53;4975070;28;20376;-65
2022/09/06 02:16:05;;;;;;;1.30;0.60;;;;;;;-142.37;100.00;59669.53;4975066;28;20029;-65
2022/09/06 02:18:43;;;;;;;3.28;1.10;;;;;;;-142.37;100.00;59669.53;4957737;28;20027;-65
2022/09/06 02:21:13;;;;;;;2.88;0.80;;;;;;;-142.37;100.00;59669.53;4957433;28;20035;-65
2022/09/06 02:23:40;;;;;;;1.27;1.02;;;;;;;-142.37;100.00;59669.53;4974880;28;20034;-65
2022/09/06 02:26:19;;;;;;;3.67;1.10;;;;;;;-142.37;100.00;59669.53;4957611;28;20034;-65
2022/09/06 02:28:45;;;;;;;2.35;0.70;;;;;;;-142.37;100.00;59669.53;4957467;28;20121;-64
2022/09/06 02:31:22;;;;;;;3.60;0.80;;;;;;;-142.37;100.00;59669.53;4957380;28;20137;-65
2022/09/06 02:33:49;;;;;;;2.72;0.63;;;;;;;-142.37;100.00;59669.53;4957507;28;20030;-65
2022/09/06 02:36:15;;;;;;;3.45;0.80;;;;;;;-142.37;100.00;59669.53;4956404;28;20476;-65
2022/09/06 02:38:43;;;;;;;4.03;0.80;;;;;;;-142.37;100.00;59669.53;4975130;28;20031;-65
2022/09/06 02:41:09;;;;;;;1.15;0.85;;;;;;;-142.37;100.00;59669.53;4974520;28;20031;-64
2022/09/06 02:43:35;;;;;;;2.65;1.33;;;;;;;-142.37;100.00;59669.53;4974806;28;20045;-65
2022/09/06 02:46:01;;;;;;;0.88;0.80;;;;;;;-142.37;100.00;59669.53;4957284;28;20399;-66
2022/09/06 02:48:27;;;;;;;1.65;0.73;;;;;;;-142.37;100.00;59669.53;4957429;28;20034;-65
2022/09/06 02:50:52;;;;;;;4.80;0.98;;;;;;;-142.37;100.00;59669.53;4974455;28;20031;-65
2022/09/06 02:53:18;;;;;;;1.20;0.80;;;;;;;-142.37;100.00;59669.53;4956870;28;20559;-65
2022/09/06 02:55:46;;;;;;;4.65;1.48;;;;;;;-142.37;100.00;59669.53;4974240;28;20023;-64
2022/09/06 02:58:12;;;;;;;2.53;0.68;;;;;;;-142.37;100.00;59669.53;4974389;28;20097;-65
2022/09/06 03:00:38;;;;;;;3.60;0.85;;;;;;;-142.37;100.00;59669.53;4956890;28;20435;-65
2022/09/06 03:03:04;;;;;;;1.10;0.82;;;;;;;-142.37;100.00;59669.53;4956530;28;20035;-65
2022/09/06 03:05:30;;;;;;;1.20;0.80;;;;;;;-142.37;100.00;59669.53;4973980;28;20045;-65
2022/09/06 03:07:56;;;;;;;4.35;1.08;;;;;;;-142.37;100.00;59669.53;4974012;28;20038;-64
2022/09/06 03:10:22;;;;;;;2.85;0.80;;;;;;;-142.37;100.00;59669.53;4974071;28;20105;-64
2022/09/06 03:12:48;;;;;;;3.03;1.05;;;;;;;-142.37;100.00;59669.53;4972798;28;20555;-65
2022/09/06 03:15:15;;;;;;;2.25;0.82;;;;;;;-142.37;100.00;59669.53;4974231;28;20030;-65
2022/09/06 03:17:41;;;;;;;3.28;0.80;;;;;;;-142.37;100.00;59669.53;4973980;28;20046;-65
2022/09/06 03:20:08;;;;;;;0.73;0.60;;;;;;;-142.37;100.00;59669.53;4973880;28;20027;-64
2022/09/06 03:22:38;;;;;;;1.98;0.95;;;;;;;-142.37;100.00;59669.53;4974006;28;20047;-65
2022/09/06 03:25:08;;;;;;;3.67;1.23;;;;;;;-142.37;100.00;59669.53;4973709;28;20158;-66
2022/09/06 03:27:33;;;;;;;3.47;0.98;;;;;;;-142.37;100.00;59669.53;4956721;28;20031;-66
2022/09/06 03:29:59;;;;;;;0.77;0.73;;;;;;;-142.37;100.00;59669.53;4973824;28;20463;-65
2022/09/06 03:32:25;;;;;;;3.70;0.70;;;;;;;-142.37;100.00;59669.53;4973669;28;20031;-65
2022/09/06 03:34:51;;;;;;;0.77;0.50;;;;;;;-142.37;100.00;59669.53;4956201;28;20057;-66
2022/09/06 03:37:18;;;;;;;2.30;0.70;;;;;;;-142.37;100.00;59669.53;4973578;28;20039;-65
2022/09/06 03:39:43;;;;;;;1.70;1.05;;;;;;;-142.37;100.00;59669.53;4973773;28;20468;-65
2022/09/06 03:42:09;;;;;;;3.13;0.70;;;;;;;-142.37;100.00;59669.53;4974116;28;20062;-66
2022/09/06 03:44:34;;;;;;;4.22;1.25;;;;;;;-142.37;100.00;59669.53;4956372;28;20026;-64
2022/09/06 03:47:00;;;;;;;3.30;0.80;;;;;;;-142.37;100.00;59669.53;4973370;28;20549;-67
2022/09/06 03:49:26;;;;;;;1.42;1.10;;;;;;;-142.37;100.00;59669.53;4973630;28;20039;-66
2022/09/06 03:51:51;;;;;;;1.48;0.80;;;;;;;-142.37;100.00;59669.53;4974112;28;20026;-66
2022/09/06 03:54:17;;;;;;;0.95;0.70;;;;;;;-142.37;100.00;59669.53;4956409;28;20031;-65
2022/09/06 03:56:43;;;;;;;1.15;0.77;;;;;;;-142.37;100.00;59669.53;4973511;28;20077;-65
2022/09/06 03:59:08;;;;;;;1.20;0.75;;;;;;;-142.37;100.00;59669.53;4955839;28;20177;-64
2022/09/06 04:01:35;;;;;;;1.33;0.77;;;;;;;-142.37;100.00;59669.53;4973594;28;20042;-66
2022/09/06 04:04:01;;;;;;;0.90;0.70;;;;;;;-142.37;100.00;59669.53;4973133;28;20035;-65
2022/09/06 04:06:27;;;;;;;7.90;0.88;;;;;;;-142.37;100.00;59669.53;4955556;28;20041;-65
2022/09/06 04:08:53;;;;;;;3.65;1.00;;;;;;;-142.37;100.00;59669.53;4973351;28;20046;-66
2022/09/06 04:11:19;;;;;;;0.95;0.73;;;;;;;-142.37;100.00;59669.53;4973277;28;20057;-66
2022/09/06 04:13:45;;;;;;;1.25;1.05;;;;;;;-142.37;100.00;59669.53;4973258;28;20027;-66
2022/09/06 04:16:10;;;;;;;1.25;0.60;;;;;;;-142.37;100.00;59669.53;4955693;28;20476;-66
2022/09/06 04:18:36;;;;;;;2.17;1.02;;;;;;;-142.37;100.00;59669.53;4955626;28;20039;-66
2022/09/06 04:21:01;;;;;;;0.95;0.82;;;;;;;-142.37;100.00;59669.53;4972918;28;20041;-67
2022/09/06 04:23:28;;;;;;;3.03;0.52;;;;;;;-142.37;100.00;59669.53;4972961;28;20117;-66
2022/09/06 04:25:55;;;;;;;2.95;1.75;;;;;;;-142.37;100.00;59669.53;4972762;28;20038;-66
2022/09/06 04:28:22;;;;;;;1.10;0.80;;;;;;;-142.37;100.00;59669.53;4955496;28;20043;-66
2022/09/06 04:31:01;;;;;;;2.38;1.00;;;;;;;-142.37;100.00;59669.53;4972701;28;20051;-68
2022/09/06 04:33:28;;;;;;;2.47;0.57;;;;;;;-142.37;100.00;59669.53;4973043;28;20026;-67
2022/09/06 04:35:56;;;;;;;1.25;0.70;;;;;;;-142.37;100.00;59669.53;4972964;28;20037;-66
2022/09/06 04:38:26;;;;;;;4.07;1.25;;;;;;;-142.37;100.00;59669.53;4971549;28;20035;-66
2022/09/06 04:40:51;;;;;;;1.20;0.80;;;;;;;-142.37;100.00;59669.53;4955375;28;20403;-66
2022/09/06 04:43:17;;;;;;;3.03;0.63;;;;;;;-142.37;100.00;59669.53;4972549;28;20035;-65
2022/09/06 04:45:43;;;;;;;3.10;0.98;;;;;;;-142.37;100.00;59669.53;4955185;28;20062;-66
2022/09/06 04:48:09;;;;;;;3.33;1.17;;;;;;;-142.37;100.00;59669.53;4972916;28;20035;-66
2022/09/06 04:50:35;;;;;;;1.90;0.80;;;;;;;-142.37;100.00;59669.53;4972606;28;20038;-66
2022/09/06 04:53:01;;;;;;;4.07;1.30;;;;;;;-142.37;100.00;59669.53;4955062;28;20041;-66
2022/09/06 04:55:30;;;;;;;9.23;1.10;;;;;;;-142.37;100.00;59669.53;4972589;28;20030;-66
2022/09/06 04:57:58;;;;;;;3.53;0.80;;;;;;;-142.37;100.00;59669.53;4955174;28;20031;-67
2022/09/06 05:00:29;;;;;;;1.23;0.90;;;;;;;-142.37;100.00;59669.53;4975594;28;20026;-66
2022/09/06 05:02:54;;;;;;;2.40;0.82;;;;;;;-142.37;100.00;59669.53;4975961;28;20041;-66
2022/09/06 05:05:21;;;;;;;8.18;0.80;;;;;;;-142.37;100.00;59669.53;4957941;28;20398;-66
2022/09/06 05:07:50;;;;;;;3.25;0.80;;;;;;;-142.37;100.00;59669.53;4975611;28;20034;-66
2022/09/06 05:10:16;;;;;;;1.35;0.98;;;;;;;-142.37;100.00;59669.53;4958232;28;20031;-66
2022/09/06 05:12:41;;;;;;;4.28;1.52;;;;;;;-142.37;100.00;59669.53;4958216;28;20097;-66
2022/09/06 05:15:07;;;;;;;3.95;1.92;;;;;;;-142.37;100.00;59669.53;4975522;28;20031;-65
2022/09/06 05:17:33;;;;;;;2.20;0.88;;;;;;;-142.37;100.00;59669.53;4975385;28;20022;-66
2022/09/06 05:19:59;;;;;;;1.23;0.90;;;;;;;-142.37;100.00;59669.53;4975770;28;20041;-66
2022/09/06 05:22:24;;;;;;;4.43;0.85;;;;;;;-142.37;100.00;59669.53;4975048;28;20086;-65
2022/09/06 05:24:50;;;;;;;1.20;0.88;;;;;;;-142.37;100.00;59669.53;4974960;28;20039;-68
2022/09/06 05:27:16;;;;;;;1.35;1.17;;;;;;;-142.37;100.00;59669.53;4975090;28;20145;-65
2022/09/06 05:29:41;;;;;;;1.42;0.80;;;;;;;-142.37;100.00;59669.53;4956468;28;20460;-65
2022/09/06 05:32:08;;;;;;;1.30;0.90;;;;;;;-142.37;100.00;59669.53;4974701;28;20546;-66
2022/09/06 05:34:34;;;;;;;6.45;1.35;;;;;;;-142.37;100.00;59669.53;4975331;28;20050;-69
2022/09/06 05:36:59;;;;;;;1.85;0.80;;;;;;;-142.37;100.00;59669.53;4957882;28;20089;-65
2022/09/06 05:39:25;;;;;;;2.13;0.88;;;;;;;-142.37;100.00;59669.53;4974969;28;20440;-66
2022/09/06 05:41:51;;;;;;;2.95;0.80;;;;;;;-142.37;100.00;59669.53;4975139;28;20042;-66
2022/09/06 05:44:16;;;;;;;2.55;1.05;;;;;;;-142.37;100.00;59669.53;4957240;28;20053;-67
2022/09/06 05:46:44;;;;;;;2.40;0.90;;;;;;;-142.37;100.00;59669.53;4957241;28;20046;-65
2022/09/06 05:49:10;;;;;;;2.03;0.82;;;;;;;-142.37;100.00;59669.53;4974634;28;20114;-67
2022/09/06 05:51:36;;;;;;;6.22;1.75;;;;;;;-142.37;100.00;59669.53;4974413;28;20126;-66
2022/09/06 05:54:02;;;;;;;1.30;0.80;;;;;;;-142.37;100.00;59669.53;4972468;28;20109;-67
2022/09/06 05:56:27;;;;;;;2.65;0.85;;;;;;;-142.37;100.00;59669.53;4957067;28;20031;-69
2022/09/06 05:58:53;;;;;;;2.92;0.75;;;;;;;-142.37;100.00;59669.53;4956202;28;20348;-69
2022/09/06 06:01:27;;;;;;;2.45;1.02;;;;;;;-142.37;100.00;59669.53;4973098;28;20131;-68
2022/09/06 06:04:01;;;;;;;1.90;0.83;;;;;;;-142.37;100.00;59669.53;4974118;28;20041;-67
2022/09/06 06:06:29;;;;;;;3.50;0.67;;;;;;;-142.37;100.00;59669.53;4973551;28;20284;-68
2022/09/06 06:08:55;;;;;;;2.83;0.88;;;;;;;-142.37;100.00;59669.53;4956078;28;20061;-68
2022/09/06 06:11:21;;;;;;;1.10;0.70;;;;;;;-142.37;100.00;59669.53;4956035;28;20055;-68
2022/09/06 06:13:47;;;;;;;0.70;0.70;;;;;;;-142.37;100.00;59669.53;4972904;28;20037;-68
2022/09/06 06:16:14;;;;;;;2.28;0.85;;;;;;;-142.37;100.00;59669.53;4973539;28;20135;-68
2022/09/06 06:18:43;;;;;;;2.67;0.80;;;;;;;-142.37;100.00;59669.53;4973219;28;20085;-67
2022/09/06 06:21:11;;;;;;;4.80;0.73;;;;;;;-142.37;100.00;59669.53;4956302;28;20038;-68
2022/09/06 06:23:38;;;;;;;0.77;0.70;;;;;;;-142.37;100.00;59669.53;4971730;28;20031;-67
2022/09/06 06:26:04;;;;;;;0.80;0.60;;;;;;;-142.37;100.00;59669.53;4955725;28;20092;-66
2022/09/06 06:28:31;;;;;;;0.90;0.60;;;;;;;-142.37;100.00;59669.53;4972773;28;20384;-66
2022/09/06 06:30:56;;;;;;;1.52;0.63;;;;;;;-142.37;100.00;59669.53;4955599;28;20047;-76
2022/09/06 06:33:22;;;;;;;0.90;0.60;;;;;;;-142.37;100.00;59669.53;4971854;28;20491;-68
2022/09/06 06:36:03;;;;;;;3.70;1.05;;;;;;;-142.37;100.00;59669.53;4955696;28;20573;-68
2022/09/06 06:38:36;;;;;;;2.10;1.20;;;;;;;-142.37;100.00;59669.53;4973007;28;20050;-68
2022/09/06 06:41:03;;;;;;;2.00;0.60;;;;;;;-142.37;100.00;59669.53;4955325;28;20042;-68
2022/09/06 06:43:35;;;;;;;2.10;0.75;;;;;;;-142.37;100.00;59669.53;4972773;28;20089;-68
2022/09/06 06:46:04;;;;;;;0.40;0.40;;;;;;;-142.37;100.00;59669.53;4955226;28;20121;-67
2022/09/06 06:48:31;;;;;;;2.30;0.95;;;;;;;-142.37;100.00;59669.53;4972868;28;20062;-66
2022/09/06 06:50:56;;;;;;;2.95;1.05;;;;;;;-142.37;100.00;59669.53;4955294;28;20053;-69
2022/09/06 06:53:22;;;;;;;0.95;0.90;;;;;;;-142.37;100.00;59669.53;4973277;28;20538;-68
2022/09/06 06:55:48;;;;;;;3.80;0.88;;;;;;;-142.37;100.00;59669.53;4972626;28;20027;-67
2022/09/06 06:58:17;;;;;;;2.78;0.90;;;;;;;-142.37;100.00;59669.53;4955162;28;20039;-67
2022/09/06 07:00:44;;;;;;;1.83;0.75;;;;;;;-142.37;100.00;59669.53;4973337;28;20039;-68
2022/09/06 07:03:10;;;;;;;1.05;0.85;;;;;;;-142.37;100.00;59669.53;4972553;28;20031;-67
2022/09/06 07:05:38;;;;;;;2.13;1.00;;;;;;;-142.37;100.00;59669.53;4972679;28;20043;-67
2022/09/06 07:08:04;;;;;;;0.63;0.60;;;;;;;-142.37;100.00;59669.53;4971917;28;20058;-67
2022/09/06 07:10:30;;;;;;;2.15;0.93;;;;;;;-142.37;100.00;59669.53;4956097;28;20068;-67
2022/09/06 07:12:56;;;;;;;1.92;1.13;;;;;;;-142.37;100.00;59669.53;4955553;28;20098;-71
2022/09/06 07:15:22;;;;;;;1.83;0.70;;;;;;;-142.37;100.00;59669.53;4955251;28;20030;-66
2022/09/06 07:17:47;;;;;;;6.68;1.08;;;;;;;-142.37;100.00;59669.53;4972980;28;20027;-65
2022/09/06 07:20:13;;;;;;;1.38;0.60;;;;;;;-142.37;100.00;59669.53;4972929;28;20049;-67
2022/09/06 07:22:39;;;;;;;1.38;0.60;;;;;;;-142.37;100.00;59669.53;4954756;28;20039;-67
2022/09/06 07:25:06;;;;;;;1.85;0.70;;;;;;;-142.37;100.00;59669.53;4955050;28;20530;-67
2022/09/06 07:27:32;;;;;;;4.35;0.60;;;;;;;-142.37;100.00;59669.53;4955638;28;20186;-67
2022/09/06 07:29:58;;;;;;;3.55;0.60;;;;;;;-142.37;100.00;59669.53;4955249;28;20540;-66
2022/09/06 07:32:24;;;;;;;0.90;0.85;;;;;;;-142.37;100.00;59669.53;4954852;28;20190;-68
2022/09/06 07:34:49;;;;;;;2.08;1.13;;;;;;;-142.37;100.00;59669.53;4955164;28;20031;-66
2022/09/06 07:37:16;;;;;;;2.35;0.98;;;;;;;-142.37;100.00;59669.53;4972211;28;20466;-67
2022/09/06 07:39:41;;;;;;;1.75;0.93;;;;;;;-142.37;100.00;59669.53;4955784;28;20548;-68
2022/09/06 07:42:08;;;;;;;12.20;1.95;;;;;;;-142.37;100.00;59669.53;4954969;28;20054;-67
2022/09/06 07:44:34;;;;;;;2.15;0.57;;;;;;;-142.37;100.00;59669.53;4972625;28;20106;-68
2022/09/06 07:47:05;;;;;;;2.22;1.10;;;;;;;-142.37;100.00;59669.53;4954923;28;20130;-67
2022/09/06 07:49:31;;;;;;;3.22;0.63;;;;;;;-142.37;100.00;59669.53;4972054;28;20027;-66
2022/09/06 07:51:57;;;;;;;2.88;1.17;;;;;;;-142.37;100.00;59669.53;4972886;28;20242;-65
2022/09/06 07:54:23;;;;;;;4.68;0.70;;;;;;;-142.37;100.00;59669.53;4955579;28;20118;-67
2022/09/06 07:56:48;;;;;;;2.72;0.90;;;;;;;-142.37;100.00;59669.53;4955189;28;20376;-66
2022/09/06 07:59:14;;;;;;;0.90;0.55;;;;;;;-142.37;100.00;59669.53;4972246;28;20030;-66
2022/09/06 08:01:40;;;;;;;0.85;0.77;;;;;;;-142.37;100.00;59669.53;4972437;28;20109;-67
2022/09/06 08:04:08;;;;;;;3.78;1.00;;;;;;;-142.37;100.00;59669.53;4972721;28;20106;-66
2022/09/06 08:06:37;;;;;;;1.55;0.80;;;;;;;-142.37;100.00;59669.53;4972476;28;20071;-67
2022/09/06 08:09:06;;;;;;;1.08;0.82;;;;;;;-142.37;100.00;59669.53;4970238;28;20037;-67
2022/09/06 08:11:33;;;;;;;1.30;0.47;;;;;;;-142.37;100.00;59669.53;4954765;28;20035;-67
2022/09/06 08:14:00;;;;;;;3.03;1.35;;;;;;;-142.37;100.00;59669.53;4954906;28;20037;-68
2022/09/06 08:16:28;;;;;;;2.38;0.50;;;;;;;-142.37;100.00;59669.53;4972595;28;20031;-68
2022/09/06 08:18:55;;;;;;;2.72;0.85;;;;;;;-142.37;100.00;59669.53;4954724;28;20031;-67
2022/09/06 08:21:23;;;;;;;3.08;0.70;;;;;;;-142.37;100.00;59669.53;4972461;28;20034;-67
2022/09/06 08:23:55;;;;;;;3.88;0.90;;;;;;;-142.37;100.00;59669.53;4972988;28;20050;-66
2022/09/06 08:26:23;;;;;;;4.15;0.60;;;;;;;-142.37;100.00;59669.53;4971971;28;20033;-66
2022/09/06 08:28:53;;;;;;;1.52;0.80;;;;;;;-142.37;100.00;59669.53;4972193;28;20046;-63
2022/09/06 08:31:19;;;;;;;3.40;0.63;;;;;;;-142.37;100.00;59669.53;4972076;28;20049;-64
2022/09/06 08:33:46;;;;;;;0.50;0.50;;;;;;;-142.37;100.00;59669.53;4972878;28;20464;-64
2022/09/06 08:36:12;;;;;;;1.42;0.70;;;;;;;-142.37;100.00;59669.53;4958377;28;20089;-64
2022/09/06 08:38:38;;;;;;;3.45;0.90;;;;;;;-142.37;100.00;59669.53;4958723;28;20113;-63
2022/09/06 08:41:09;;;;;;;1.77;0.80;;;;;;;-142.37;100.00;59669.53;4958059;28;20037;-63
2022/09/06 08:43:36;;;;;;;0.70;0.65;;;;;;;-142.37;100.00;59669.53;4974770;28;20130;-62
2022/09/06 08:46:03;;;;;;;4.75;1.20;;;;;;;-142.37;100.00;59669.53;4958596;28;20500;-62
2022/09/06 08:48:32;;;;;;;1.20;0.85;;;;;;;-142.37;100.00;59669.53;4958248;28;20130;-62
2022/09/06 08:51:26;;;;;;;4.03;1.40;;;;;;;-142.37;100.00;59669.53;4975623;28;20164;-62
2022/09/06 08:53:59;;;;;;;4.72;1.40;;;;;;;-142.37;100.00;59669.53;4975917;28;20063;-61
2022/09/06 08:56:37;;;;;;;0.75;0.75;;;;;;;-142.37;100.00;59669.53;4975501;28;20395;-61
2022/09/06 08:59:13;;;;;;;0.98;0.90;;;;;;;-142.37;100.00;59669.53;4974751;28;20026;-62
2022/09/06 09:02:13;;;;;;;3.88;1.42;;;;;;;-142.37;100.00;59669.53;4975162;28;20492;-61
2022/09/06 09:04:46;;;;;;;1.33;1.08;;;;;;;-142.37;100.00;59669.53;4973810;28;20031;-61
2022/09/06 09:07:39;;;;;;;0.88;0.77;;;;;;;-142.37;100.00;59669.53;4974824;28;20035;-62
2022/09/06 09:10:13;;;;;;;2.38;0.95;;;;;;;-142.37;100.00;59669.53;4974982;28;20050;-62
2022/09/06 09:12:45;;;;;;;2.67;0.50;;;;;;;-142.37;100.00;59669.53;4957533;28;20058;-63
2022/09/06 09:15:13;;;;;;;1.13;0.70;;;;;;;-142.37;100.00;59669.53;4972887;28;20113;-63
2022/09/06 09:17:39;;;;;;;3.65;1.13;;;;;;;-142.37;100.00;59669.53;4975077;28;20119;-63
2022/09/06 09:20:07;;;;;;;1.55;0.73;;;;;;;-142.37;100.00;59669.53;4974295;28;20530;-62
2022/09/06 09:22:34;;;;;;;1.98;0.68;;;;;;;-142.37;100.00;59669.53;4956728;28;20451;-64
2022/09/06 09:25:00;;;;;;;0.88;0.60;;;;;;;-142.37;100.00;59669.53;4975002;28;20482;-62
2022/09/06 09:27:27;;;;;;;1.20;0.63;;;;;;;-142.37;100.00;59669.53;4975032;28;20114;-64
2022/09/06 09:29:53;;;;;;;0.55;0.55;;;;;;;-142.37;100.00;59669.53;4974872;28;20558;-63
2022/09/06 09:32:36;;;;;;;0.60;0.60;;;;;;;-142.37;100.00;59669.53;4973195;28;20039;-63
2022/09/06 09:35:14;;;;;;;1.65;1.00;;;;;;;-142.37;100.00;59669.53;4957232;28;20118;-62
2022/09/06 09:37:39;;;;;;;4.80;0.95;;;;;;;-142.37;100.00;59669.53;4972948;28;20125;-63
2022/09/06 09:40:11;;;;;;;0.85;0.80;;;;;;;-142.37;100.00;59669.53;4956902;28;20117;-63
2022/09/06 09:42:38;;;;;;;2.38;0.80;;;;;;;-142.37;100.00;59669.53;4957291;28;20033;-61
2022/09/06 09:45:27;;;;;;;2.00;1.27;;;;;;;-142.37;100.00;59669.53;4956152;28;20062;-62
2022/09/06 09:47:54;;;;;;;5.40;1.30;;;;;;;-142.37;100.00;59669.53;4955511;28;20154;-62
2022/09/06 09:50:22;;;;;;;4.55;1.42;;;;;;;-142.37;100.00;59669.53;4974322;28;20034;-62
2022/09/06 09:52:48;;;;;;;3.00;0.90;;;;;;;-142.37;100.00;59669.53;4972688;28;20495;-61
2022/09/06 09:55:14;;;;;;;1.55;0.95;;;;;;;-142.37;100.00;59669.53;4973705;28;20035;-63
2022/09/06 09:57:46;;;;;;;7.60;1.10;;;;;;;-142.37;100.00;59669.53;4974115;28;20027;-61
2022/09/06 10:00:13;;;;;;;3.67;0.80;;;;;;;-142.37;100.00;59669.53;4956791;28;20102;-62
2022/09/06 10:02:42;;;;;;;2.05;0.70;;;;;;;-142.37;100.00;59669.53;4956853;28;20476;-63
2022/09/06 10:05:19;;;;;;;2.00;0.65;;;;;;;-142.37;100.00;59669.53;4956105;28;20388;-63
2022/09/06 10:07:52;;;;;;;2.92;0.57;;;;;;;-142.37;100.00;59669.53;4973396;28;20415;-61
2022/09/06 10:10:25;;;;;;;1.67;0.90;;;;;;;-142.37;100.00;59669.53;4973413;28;20027;-62
2022/09/06 10:13:21;;;;;;;1.30;0.80;;;;;;;-142.37;100.00;59669.53;4973576;28;20538;-62
2022/09/06 10:15:49;;;;;;;2.65;0.75;;;;;;;-142.37;100.00;59669.53;4973643;28;20388;-63
2022/09/06 10:18:41;;;;;;;2.67;0.80;;;;;;;-142.37;100.00;59669.53;4955600;28;20031;-62
2022/09/06 10:21:21;;;;;;;1.30;0.73;;;;;;;-142.37;100.00;59669.53;4973608;28;20027;-63
2022/09/06 10:24:13;;;;;;;0.80;0.80;;;;;;;-142.37;100.00;59669.53;4956113;28;20026;-62
2022/09/06 10:26:58;;;;;;;0.52;0.52;;;;;;;-142.37;100.00;59669.53;4973357;28;20039;-62
2022/09/06 10:29:51;;;;;;;1.42;0.85;;;;;;;-142.37;100.00;59669.53;4971916;28;20054;-62
2022/09/06 10:32:47;;;;;;;1.98;0.90;;;;;;;-142.37;100.00;59669.53;4956525;28;20113;-61
2022/09/06 10:35:24;;;;;;;1.27;0.95;;;;;;;-142.37;100.00;59669.53;4955891;28;20035;-62
2022/09/06 10:38:16;;;;;;;4.60;0.85;;;;;;;-142.37;100.00;59669.53;4973438;28;20035;-63
2022/09/06 10:40:44;;;;;;;1.55;0.70;;;;;;;-142.37;100.00;59669.53;4972963;28;20420;-62
2022/09/06 10:43:17;;;;;;;2.92;0.70;;;;;;;-142.37;100.00;59669.53;4973162;28;20109;-62
2022/09/06 10:46:03;;;;;;;1.70;0.88;;;;;;;-142.37;100.00;59669.53;4955246;28;20435;-62
2022/09/06 10:48:40;;;;;;;3.42;1.10;;;;;;;-142.37;100.00;59669.53;4955875;28;20435;-63
2022/09/06 10:51:20;;;;;;;2.28;0.80;;;;;;;-142.37;100.00;59669.53;4955010;28;20035;-63
2022/09/06 10:53:54;;;;;;;2.08;0.80;;;;;;;-142.37;100.00;59669.53;4973237;28;20150;-64
2022/09/06 10:56:41;;;;;;;1.75;0.70;;;;;;;-142.37;100.00;59669.53;4954617;28;20400;-62
2022/09/06 10:59:40;;;;;;;2.05;0.70;;;;;;;-142.37;100.00;59669.53;4973559;28;20085;-62
2022/09/06 11:02:37;;;;;;;4.03;0.50;;;;;;;-142.37;100.00;59669.53;4973069;28;20042;-61
2022/09/06 11:05:10;;;;;;;2.53;0.82;;;;;;;-142.37;100.00;59669.53;4971627;28;20133;-61
2022/09/06 11:07:45;;;;;;;1.52;0.60;;;;;;;-142.37;100.00;59669.53;4955459;28;20113;-61
2022/09/06 11:10:20;;;;;;;1.08;0.70;;;;;;;-142.37;100.00;59669.53;4972952;28;20507;-60
2022/09/06 11:12:53;;;;;;;1.63;1.10;;;;;;;-142.37;100.00;59669.53;4955560;28;20039;-61
2022/09/06 11:15:20;;;;;;;1.27;1.00;;;;;;;-142.37;100.00;59669.53;4972617;28;20062;-62
2022/09/06 11:18:24;;;;;;;0.50;0.50;;;;;;;-142.37;100.00;59669.53;4973550;28;20034;-62
2022/09/06 11:21:18;;;;;;;2.50;0.95;;;;;;;-142.37;100.00;59669.53;4973451;28;20045;-62
2022/09/06 11:24:09;;;;;;;0.60;0.50;;;;;;;-142.37;100.00;59669.53;4971859;28;20122;-61